createdAt,value
2018-09-29T00:00:36.824Z,22.07
2018-09-29T00:01:36.803Z,21.96
2018-09-29T00:02:36.781Z,21.96
2018-09-29T00:03:36.787Z,21.97
2018-09-29T00:04:36.761Z,21.90
2018-09-29T00:05:36.765Z,21.96
2018-09-29T00:06:36.742Z,21.97
2018-09-29T00:07:36.735Z,21.94
2018-09-29T00:08:36.728Z,21.90
2018-09-29T00:09:36.705Z,21.96
2018-09-29T00:10:36.694Z,21.86
2018-09-29T00:11:36.685Z,21.89
2018-09-29T00:12:36.672Z,21.97
2018-09-29T00:13:36.682Z,21.90
2018-09-29T00:14:36.648Z,21.89
2018-09-29T00:15:36.638Z,21.90
2018-09-29T00:16:36.694Z,22.00
2018-09-29T00:17:36.621Z,21.90
2018-09-29T00:18:36.628Z,21.97
2018-09-29T00:19:36.593Z,21.92
2018-09-29T00:20:36.582Z,21.85
2018-09-29T00:21:36.571Z,21.96
2018-09-29T00:22:36.562Z,21.86
2018-09-29T00:23:36.560Z,21.97
2018-09-29T00:24:36.551Z,21.89
2018-09-29T00:25:36.528Z,21.97
2018-09-29T00:26:36.517Z,21.92
2018-09-29T00:27:36.506Z,21.93
2018-09-29T00:28:36.528Z,21.90
2018-09-29T00:29:36.495Z,21.90
2018-09-29T00:30:36.481Z,21.85
2018-09-29T00:31:36.464Z,21.89
2018-09-29T00:32:36.451Z,21.85
2018-09-29T00:33:36.439Z,21.86
2018-09-29T00:34:36.440Z,21.94
2018-09-29T00:35:36.417Z,21.96
2018-09-29T00:36:36.406Z,21.93
2018-09-29T00:37:36.396Z,21.92
2018-09-29T00:38:36.385Z,21.94
2018-09-29T00:39:36.385Z,21.89
2018-09-29T00:40:36.362Z,21.94
2018-09-29T00:41:36.365Z,21.90
2018-09-29T00:42:36.341Z,21.93
2018-09-29T00:43:36.331Z,21.86
2018-09-29T00:44:36.329Z,21.90
2018-09-29T00:45:36.306Z,21.90
2018-09-29T00:46:36.300Z,21.96
2018-09-29T00:47:36.284Z,21.93
2018-09-29T00:48:36.272Z,21.96
2018-09-29T00:49:36.274Z,21.90
2018-09-29T00:50:36.252Z,22.00
2018-09-29T00:51:36.242Z,21.99
2018-09-29T00:52:36.234Z,21.94
2018-09-29T00:53:36.219Z,21.92
2018-09-29T00:54:36.228Z,21.90
2018-09-29T00:55:36.197Z,21.86
2018-09-29T00:56:36.186Z,21.90
2018-09-29T00:57:36.175Z,21.92
2018-09-29T00:58:36.164Z,22.02
2018-09-29T00:59:36.166Z,21.89
2018-09-29T01:00:36.143Z,21.90
2018-09-29T01:01:36.130Z,21.92
2018-09-29T01:02:36.122Z,21.93
2018-09-29T01:03:36.108Z,21.80
2018-09-29T01:04:36.123Z,21.89
2018-09-29T01:05:36.087Z,21.80
2018-09-29T01:06:36.076Z,21.90
2018-09-29T01:07:36.064Z,22.02
2018-09-29T01:08:36.060Z,21.86
2018-09-29T01:09:36.075Z,21.82
2018-09-29T01:10:36.035Z,21.99
2018-09-29T01:11:36.020Z,21.93
2018-09-29T01:12:36.009Z,21.93
2018-09-29T01:13:35.999Z,21.86
2018-09-29T01:14:35.999Z,21.90
2018-09-29T01:15:35.976Z,22.00
2018-09-29T01:16:35.965Z,21.85
2018-09-29T01:17:35.969Z,21.90
2018-09-29T01:18:35.943Z,21.96
2018-09-29T01:19:35.966Z,21.82
2018-09-29T01:20:35.921Z,21.89
2018-09-29T01:21:35.909Z,21.94
2018-09-29T01:22:35.901Z,21.85
2018-09-29T01:23:35.888Z,21.92
2018-09-29T01:24:35.889Z,21.93
2018-09-29T01:25:35.870Z,21.96
2018-09-29T01:26:35.854Z,21.83
2018-09-29T01:27:35.844Z,21.90
2018-09-29T01:28:35.839Z,21.82
2018-09-29T01:29:35.841Z,21.96
2018-09-29T01:30:35.819Z,21.89
2018-09-29T01:31:35.800Z,21.90
2018-09-29T01:32:35.811Z,21.92
2018-09-29T01:33:35.779Z,21.90
2018-09-29T01:34:35.779Z,21.89
2018-09-29T01:35:35.757Z,21.89
2018-09-29T01:36:35.744Z,21.92
2018-09-29T01:37:35.734Z,21.83
2018-09-29T01:38:35.727Z,21.83
2018-09-29T01:39:35.724Z,21.90
2018-09-29T01:40:35.701Z,21.86
2018-09-29T01:41:35.692Z,21.97
2018-09-29T01:42:35.701Z,21.93
2018-09-29T01:43:35.668Z,21.93
2018-09-29T01:44:35.668Z,21.89
2018-09-29T01:45:35.648Z,21.89
2018-09-29T01:46:35.635Z,21.93
2018-09-29T01:47:35.626Z,21.94
2018-09-29T01:48:35.613Z,21.86
2018-09-29T01:49:35.613Z,21.92
2018-09-29T01:50:35.590Z,21.89
2018-09-29T01:51:35.583Z,21.86
2018-09-29T01:52:35.570Z,21.92
2018-09-29T01:53:35.566Z,21.94
2018-09-29T01:54:35.560Z,21.83
2018-09-29T01:55:35.552Z,21.85
2018-09-29T01:56:35.525Z,21.92
2018-09-29T01:57:35.514Z,21.94
2018-09-29T01:58:35.503Z,21.89
2018-09-29T01:59:35.505Z,21.85
2018-09-29T02:00:35.481Z,21.94
2018-09-29T02:01:35.473Z,21.86
2018-09-29T02:02:35.461Z,21.90
2018-09-29T02:03:35.477Z,21.90
2018-09-29T02:04:35.470Z,21.89
2018-09-29T02:05:35.451Z,21.90
2018-09-29T02:06:35.423Z,21.89
2018-09-29T02:07:35.403Z,21.89
2018-09-29T02:08:35.404Z,21.71
2018-09-29T02:09:35.382Z,21.89
2018-09-29T02:10:35.384Z,21.90
2018-09-29T02:11:35.358Z,21.93
2018-09-29T02:12:35.348Z,21.92
2018-09-29T02:13:35.337Z,21.86
2018-09-29T02:14:35.328Z,21.85
2018-09-29T02:15:35.326Z,21.85
2018-09-29T02:16:35.324Z,21.90
2018-09-29T02:17:35.296Z,21.85
2018-09-29T02:18:35.289Z,21.90
2018-09-29T02:19:35.271Z,21.86
2018-09-29T02:20:35.272Z,21.89
2018-09-29T02:21:35.252Z,21.96
2018-09-29T02:22:35.238Z,21.89
2018-09-29T02:23:35.227Z,21.85
2018-09-29T02:24:35.215Z,21.77
2018-09-29T02:25:35.216Z,21.90
2018-09-29T02:26:35.194Z,21.86
2018-09-29T02:27:35.182Z,21.78
2018-09-29T02:28:35.262Z,21.90
2018-09-29T02:29:35.161Z,21.83
2018-09-29T02:30:35.163Z,21.78
2018-09-29T02:31:35.142Z,21.90
2018-09-29T02:32:35.127Z,21.86
2018-09-29T02:33:35.116Z,21.78
2018-09-29T02:34:35.105Z,21.94
2018-09-29T02:35:35.111Z,21.83
2018-09-29T02:36:35.083Z,21.78
2018-09-29T02:37:35.074Z,21.82
2018-09-29T02:38:35.061Z,21.90
2018-09-29T02:39:35.060Z,21.76
2018-09-29T02:40:35.052Z,21.86
2018-09-29T02:41:35.033Z,21.80
2018-09-29T02:42:35.026Z,21.76
2018-09-29T02:43:35.008Z,21.76
2018-09-29T02:44:34.995Z,21.77
2018-09-29T02:45:34.996Z,21.80
2018-09-29T02:46:34.973Z,21.76
2018-09-29T02:47:34.962Z,21.76
2018-09-29T02:48:34.951Z,21.86
2018-09-29T02:49:34.940Z,21.77
2018-09-29T02:50:34.943Z,21.76
2018-09-29T02:51:34.944Z,21.74
2018-09-29T02:52:34.930Z,21.78
2018-09-29T02:53:34.897Z,21.78
2018-09-29T02:54:34.885Z,21.83
2018-09-29T02:55:34.889Z,21.82
2018-09-29T02:56:34.866Z,21.74
2018-09-29T02:57:34.852Z,21.74
2018-09-29T02:58:34.844Z,21.76
2018-09-29T02:59:34.832Z,21.82
2018-09-29T03:00:34.831Z,21.77
2018-09-29T03:01:34.808Z,21.77
2018-09-29T03:02:34.797Z,21.76
2018-09-29T03:03:34.787Z,21.78
2018-09-29T03:04:34.777Z,21.77
2018-09-29T03:05:34.792Z,21.82
2018-09-29T03:06:34.755Z,21.82
2018-09-29T03:07:34.742Z,21.83
2018-09-29T03:08:34.730Z,21.77
2018-09-29T03:09:34.723Z,21.76
2018-09-29T03:10:34.720Z,21.85
2018-09-29T03:11:34.698Z,21.82
2018-09-29T03:12:34.688Z,21.77
2018-09-29T03:13:34.681Z,21.74
2018-09-29T03:14:34.676Z,21.76
2018-09-29T03:15:34.668Z,21.76
2018-09-29T03:16:34.644Z,21.76
2018-09-29T03:17:34.631Z,21.78
2018-09-29T03:18:34.629Z,21.82
2018-09-29T03:19:34.609Z,21.78
2018-09-29T03:20:34.610Z,21.76
2018-09-29T03:21:34.588Z,21.77
2018-09-29T03:22:34.590Z,21.76
2018-09-29T03:23:34.564Z,21.80
2018-09-29T03:24:34.554Z,21.78
2018-09-29T03:25:34.554Z,21.78
2018-09-29T03:26:34.536Z,21.74
2018-09-29T03:27:34.524Z,21.76
2018-09-29T03:28:34.511Z,21.74
2018-09-29T03:29:34.502Z,21.77
2018-09-29T03:30:34.512Z,21.80
2018-09-29T03:31:34.521Z,21.78
2018-09-29T03:32:34.465Z,21.71
2018-09-29T03:33:34.454Z,21.77
2018-09-29T03:34:34.444Z,21.76
2018-09-29T03:35:34.432Z,21.73
2018-09-29T03:36:34.432Z,21.77
2018-09-29T03:37:34.417Z,21.83
2018-09-29T03:38:34.398Z,21.71
2018-09-29T03:39:34.388Z,21.73
2018-09-29T03:40:34.376Z,21.73
2018-09-29T03:41:34.382Z,21.78
2018-09-29T03:42:34.354Z,21.73
2018-09-29T03:43:34.343Z,21.76
2018-09-29T03:44:34.332Z,21.74
2018-09-29T03:45:34.321Z,21.80
2018-09-29T03:46:34.321Z,21.73
2018-09-29T03:47:34.325Z,21.73
2018-09-29T03:48:34.288Z,21.74
2018-09-29T03:49:34.277Z,21.74
2018-09-29T03:50:34.266Z,21.78
2018-09-29T03:51:34.291Z,21.77
2018-09-29T03:52:34.244Z,21.80
2018-09-29T03:53:34.308Z,21.73
2018-09-29T03:54:34.222Z,21.71
2018-09-29T03:55:34.210Z,21.71
2018-09-29T03:56:34.210Z,21.76
2018-09-29T03:57:34.190Z,21.71
2018-09-29T03:58:34.178Z,21.71
2018-09-29T03:59:34.166Z,21.71
2018-09-29T04:00:34.177Z,21.77
2018-09-29T04:01:34.155Z,21.77
2018-09-29T04:02:34.133Z,21.73
2018-09-29T04:03:34.122Z,21.71
2018-09-29T04:04:34.115Z,21.70
2018-09-29T04:05:34.101Z,21.68
2018-09-29T04:06:34.100Z,21.70
2018-09-29T04:07:34.078Z,21.74
2018-09-29T04:08:34.066Z,21.66
2018-09-29T04:09:34.058Z,21.70
2018-09-29T04:10:34.055Z,21.73
2018-09-29T04:11:34.045Z,21.73
2018-09-29T04:12:34.021Z,21.68
2018-09-29T04:13:34.012Z,21.74
2018-09-29T04:14:33.999Z,21.71
2018-09-29T04:15:33.988Z,21.64
2018-09-29T04:16:33.991Z,21.66
2018-09-29T04:17:33.967Z,21.62
2018-09-29T04:18:33.957Z,21.67
2018-09-29T04:19:33.946Z,21.71
2018-09-29T04:20:33.934Z,21.67
2018-09-29T04:21:33.936Z,21.61
2018-09-29T04:22:33.911Z,21.64
2018-09-29T04:23:33.933Z,21.67
2018-09-29T04:24:33.889Z,21.68
2018-09-29T04:25:33.878Z,21.71
2018-09-29T04:26:33.880Z,21.70
2018-09-29T04:27:33.855Z,21.61
2018-09-29T04:28:33.844Z,21.70
2018-09-29T04:29:33.834Z,21.67
2018-09-29T04:30:33.823Z,21.66
2018-09-29T04:31:33.824Z,21.66
2018-09-29T04:32:33.801Z,21.58
2018-09-29T04:33:33.810Z,21.62
2018-09-29T04:34:33.777Z,21.67
2018-09-29T04:35:33.769Z,21.71
2018-09-29T04:36:33.768Z,21.67
2018-09-29T04:37:33.744Z,21.67
2018-09-29T04:38:33.735Z,21.62
2018-09-29T04:39:33.723Z,21.62
2018-09-29T04:40:33.718Z,21.67
2018-09-29T04:41:33.713Z,21.64
2018-09-29T04:42:33.689Z,21.67
2018-09-29T04:43:33.679Z,21.64
2018-09-29T04:44:33.668Z,21.66
2018-09-29T04:45:33.658Z,21.61
2018-09-29T04:46:33.664Z,21.58
2018-09-29T04:47:33.638Z,21.66
2018-09-29T04:48:33.624Z,21.67
2018-09-29T04:49:33.612Z,21.73
2018-09-29T04:50:33.601Z,21.62
2018-09-29T04:51:33.601Z,21.58
2018-09-29T04:52:33.581Z,21.56
2018-09-29T04:53:33.589Z,21.62
2018-09-29T04:54:33.557Z,21.59
2018-09-29T04:55:33.546Z,21.56
2018-09-29T04:56:33.562Z,21.66
2018-09-29T04:57:33.524Z,21.59
2018-09-29T04:58:33.513Z,21.67
2018-09-29T04:59:33.502Z,21.59
2018-09-29T05:00:33.575Z,21.64
2018-09-29T05:01:33.530Z,21.61
2018-09-29T05:02:33.468Z,21.73
2018-09-29T05:03:33.477Z,21.56
2018-09-29T05:04:33.446Z,21.59
2018-09-29T05:05:33.436Z,21.56
2018-09-29T05:06:33.482Z,21.59
2018-09-29T05:07:33.425Z,21.61
2018-09-29T05:08:33.402Z,21.73
2018-09-29T05:09:33.407Z,21.67
2018-09-29T05:10:33.393Z,21.55
2018-09-29T05:11:33.368Z,21.62
2018-09-29T05:12:33.369Z,21.59
2018-09-29T05:13:33.346Z,21.59
2018-09-29T05:14:33.335Z,21.61
2018-09-29T05:15:33.324Z,21.56
2018-09-29T05:16:33.318Z,21.66
2018-09-29T05:17:33.317Z,21.58
2018-09-29T05:18:33.291Z,21.53
2018-09-29T05:19:33.299Z,21.59
2018-09-29T05:20:33.267Z,21.58
2018-09-29T05:21:33.257Z,21.55
2018-09-29T05:22:33.258Z,21.55
2018-09-29T05:23:33.235Z,21.56
2018-09-29T05:24:33.225Z,21.56
2018-09-29T05:25:33.215Z,21.58
2018-09-29T05:26:33.204Z,21.58
2018-09-29T05:27:33.205Z,21.55
2018-09-29T05:28:33.180Z,21.61
2018-09-29T05:29:33.170Z,21.55
2018-09-29T05:30:33.158Z,21.58
2018-09-29T05:31:33.156Z,21.56
2018-09-29T05:32:33.160Z,21.55
2018-09-29T05:33:33.126Z,21.55
2018-09-29T05:34:33.113Z,21.56
2018-09-29T05:35:33.106Z,21.58
2018-09-29T05:36:33.092Z,21.52
2018-09-29T05:37:33.091Z,21.59
2018-09-29T05:38:33.128Z,21.53
2018-09-29T05:39:33.059Z,21.55
2018-09-29T05:40:33.047Z,21.59
2018-09-29T05:41:33.036Z,21.53
2018-09-29T05:42:33.057Z,21.59
2018-09-29T05:43:33.013Z,21.61
2018-09-29T05:44:33.006Z,21.55
2018-09-29T05:45:32.991Z,21.53
2018-09-29T05:46:32.980Z,21.59
2018-09-29T05:47:32.981Z,21.55
2018-09-29T05:48:32.958Z,21.58
2018-09-29T05:49:32.948Z,21.53
2018-09-29T05:50:32.941Z,21.58
2018-09-29T05:51:32.925Z,21.55
2018-09-29T05:52:32.969Z,21.56
2018-09-29T05:53:32.904Z,21.55
2018-09-29T05:54:32.893Z,21.58
2018-09-29T05:55:32.903Z,21.58
2018-09-29T05:56:32.869Z,21.58
2018-09-29T05:57:32.870Z,21.59
2018-09-29T05:58:32.848Z,21.58
2018-09-29T05:59:32.836Z,21.62
2018-09-29T06:00:32.916Z,21.56
2018-09-29T06:01:32.820Z,21.55
2018-09-29T06:02:32.822Z,21.59
2018-09-29T06:03:32.792Z,21.58
2018-09-29T06:04:32.783Z,21.51
2018-09-29T06:05:32.915Z,21.56
2018-09-29T06:06:32.760Z,21.51
2018-09-29T06:07:32.855Z,21.59
2018-09-29T06:08:32.743Z,21.55
2018-09-29T06:09:32.728Z,21.55
2018-09-29T06:10:32.715Z,21.51
2018-09-29T06:11:32.705Z,21.58
2018-09-29T06:12:32.705Z,21.55
2018-09-29T06:13:32.692Z,21.55
2018-09-29T06:14:32.671Z,21.61
2018-09-29T06:15:32.661Z,21.55
2018-09-29T06:16:32.650Z,21.53
2018-09-29T06:17:32.668Z,21.48
2018-09-29T06:18:32.634Z,21.61
2018-09-29T06:19:32.619Z,21.58
2018-09-29T06:20:32.607Z,21.52
2018-09-29T06:21:32.605Z,21.59
2018-09-29T06:22:32.596Z,21.48
2018-09-29T06:23:32.573Z,21.52
2018-09-29T06:24:32.596Z,21.51
2018-09-29T06:25:32.550Z,21.55
2018-09-29T06:26:32.538Z,21.46
2018-09-29T06:27:32.539Z,21.55
2018-09-29T06:28:32.517Z,21.61
2018-09-29T06:29:32.520Z,21.52
2018-09-29T06:30:32.574Z,21.48
2018-09-29T06:31:32.482Z,21.62
2018-09-29T06:32:32.483Z,21.58
2018-09-29T06:33:32.460Z,21.52
2018-09-29T06:34:32.458Z,21.55
2018-09-29T06:35:32.439Z,21.53
2018-09-29T06:36:32.429Z,21.58
2018-09-29T06:37:32.427Z,21.59
2018-09-29T06:38:32.405Z,21.49
2018-09-29T06:39:32.401Z,21.46
2018-09-29T06:40:32.383Z,21.45
2018-09-29T06:41:32.396Z,21.48
2018-09-29T06:42:32.418Z,21.48
2018-09-29T06:43:32.351Z,21.53
2018-09-29T06:44:32.339Z,21.49
2018-09-29T06:45:32.327Z,21.61
2018-09-29T06:46:32.320Z,21.51
2018-09-29T06:47:32.356Z,21.58
2018-09-29T06:48:32.313Z,21.58
2018-09-29T06:49:32.283Z,21.56
2018-09-29T06:50:32.273Z,21.58
2018-09-29T06:51:32.282Z,21.46
2018-09-29T06:52:32.252Z,21.52
2018-09-29T06:53:32.253Z,21.46
2018-09-29T06:54:32.244Z,21.46
2018-09-29T06:55:32.216Z,21.46
2018-09-29T06:56:32.207Z,21.45
2018-09-29T06:57:32.212Z,21.48
2018-09-29T06:58:32.199Z,21.49
2018-09-29T06:59:32.173Z,21.58
2018-09-29T07:00:32.165Z,21.53
2018-09-29T07:01:32.152Z,21.55
2018-09-29T07:02:32.141Z,21.58
2018-09-29T07:03:32.141Z,21.61
2018-09-29T07:04:32.134Z,21.55
2018-09-29T07:05:32.106Z,21.55
2018-09-29T07:06:32.095Z,21.49
2018-09-29T07:07:32.088Z,21.56
2018-09-29T07:08:32.084Z,21.59
2018-09-29T07:09:32.230Z,21.55
2018-09-29T07:10:32.056Z,21.61
2018-09-29T07:11:32.041Z,21.61
2018-09-29T07:12:32.029Z,21.67
2018-09-29T07:13:32.035Z,21.61
2018-09-29T07:14:32.026Z,21.58
2018-09-29T07:15:31.999Z,21.52
2018-09-29T07:16:31.987Z,21.56
2018-09-29T07:17:31.973Z,21.62
2018-09-29T07:18:31.974Z,21.59
2018-09-29T07:19:31.955Z,21.56
2018-09-29T07:20:32.043Z,21.61
2018-09-29T07:21:31.981Z,21.62
2018-09-29T07:22:31.918Z,21.55
2018-09-29T07:23:32.000Z,21.66
2018-09-29T07:24:31.898Z,21.64
2018-09-29T07:25:31.949Z,21.61
2018-09-29T07:26:31.883Z,21.62
2018-09-29T07:27:31.876Z,21.61
2018-09-29T07:28:31.865Z,21.61
2018-09-29T07:29:31.840Z,21.67
2018-09-29T07:30:31.830Z,21.68
2018-09-29T07:31:31.880Z,21.64
2018-09-29T07:32:31.808Z,21.59
2018-09-29T07:33:31.809Z,21.68
2018-09-29T07:34:31.786Z,21.66
2018-09-29T07:35:31.774Z,21.70
2018-09-29T07:36:31.762Z,21.71
2018-09-29T07:37:31.769Z,21.70
2018-09-29T07:38:31.755Z,21.74
2018-09-29T07:39:31.730Z,21.67
2018-09-29T07:40:31.719Z,21.71
2018-09-29T07:41:31.710Z,21.70
2018-09-29T07:42:31.697Z,21.78
2018-09-29T07:43:31.697Z,21.78
2018-09-29T07:44:31.695Z,21.74
2018-09-29T07:45:31.664Z,21.80
2018-09-29T07:46:31.674Z,21.82
2018-09-29T07:47:31.642Z,21.74
2018-09-29T07:48:31.646Z,21.76
2018-09-29T07:49:31.619Z,21.76
2018-09-29T07:50:31.616Z,21.78
2018-09-29T07:51:31.628Z,21.77
2018-09-29T07:52:31.587Z,21.85
2018-09-29T07:53:31.616Z,21.77
2018-09-29T07:54:31.565Z,21.86
2018-09-29T07:55:31.591Z,21.82
2018-09-29T07:56:31.579Z,21.78
2018-09-29T07:57:31.533Z,21.85
2018-09-29T07:58:31.559Z,21.86
2018-09-29T07:59:31.513Z,21.80
2018-09-29T08:00:31.537Z,21.85
2018-09-29T08:01:31.487Z,21.85
2018-09-29T08:02:31.497Z,21.78
2018-09-29T08:03:31.524Z,21.71
2018-09-29T08:04:31.455Z,21.89
2018-09-29T08:05:31.443Z,21.89
2018-09-29T08:06:31.510Z,21.93
2018-09-29T08:07:31.429Z,21.90
2018-09-29T08:08:31.410Z,21.93
2018-09-29T08:09:31.430Z,21.86
2018-09-29T08:10:31.387Z,21.92
2018-09-29T08:11:31.381Z,21.96
2018-09-29T08:12:31.508Z,21.94
2018-09-29T08:13:31.391Z,21.86
2018-09-29T08:14:31.381Z,21.97
2018-09-29T08:15:31.403Z,21.93
2018-09-29T08:16:31.324Z,21.85
2018-09-29T08:17:31.320Z,21.99
2018-09-29T08:18:31.304Z,21.86
2018-09-29T08:19:31.300Z,21.90
2018-09-29T08:20:31.367Z,21.99
2018-09-29T08:21:31.274Z,21.85
2018-09-29T08:22:31.277Z,21.93
2018-09-29T08:23:31.260Z,22.00
2018-09-29T08:24:31.244Z,22.04
2018-09-29T08:25:31.222Z,21.89
2018-09-29T08:26:31.211Z,21.93
2018-09-29T08:27:31.205Z,21.89
2018-09-29T08:28:31.190Z,21.85
2018-09-29T08:29:31.189Z,22.02
2018-09-29T08:30:31.167Z,21.94
2018-09-29T08:31:31.266Z,21.92
2018-09-29T08:32:31.154Z,21.93
2018-09-29T08:33:31.134Z,21.97
2018-09-29T08:34:31.137Z,21.94
2018-09-29T08:35:31.118Z,21.93
2018-09-29T08:36:31.106Z,21.96
2018-09-29T08:37:31.091Z,21.92
2018-09-29T08:38:31.080Z,21.94
2018-09-29T08:39:31.079Z,21.94
2018-09-29T08:40:31.058Z,22.00
2018-09-29T08:41:31.052Z,21.93
2018-09-29T08:42:31.035Z,21.86
2018-09-29T08:43:31.024Z,21.93
2018-09-29T08:44:31.027Z,21.86
2018-09-29T08:45:31.002Z,21.90
2018-09-29T08:46:30.992Z,21.92
2018-09-29T08:47:30.979Z,21.90
2018-09-29T08:48:30.969Z,21.89
2018-09-29T08:49:30.973Z,21.82
2018-09-29T08:50:30.953Z,21.90
2018-09-29T08:51:30.935Z,21.90
2018-09-29T08:52:30.972Z,21.97
2018-09-29T08:53:30.919Z,21.90
2018-09-29T08:54:30.970Z,21.94
2018-09-29T08:55:30.894Z,21.93
2018-09-29T08:56:30.885Z,21.92
2018-09-29T08:57:30.879Z,21.94
2018-09-29T08:58:30.863Z,21.92
2018-09-29T08:59:30.863Z,21.93
2018-09-29T09:00:30.846Z,21.93
2018-09-29T09:01:30.912Z,21.90
2018-09-29T09:02:30.816Z,21.85
2018-09-29T09:03:30.816Z,21.90
2018-09-29T09:04:30.804Z,21.94
2018-09-29T09:05:30.833Z,21.93
2018-09-29T09:06:30.774Z,21.90
2018-09-29T09:07:30.762Z,21.93
2018-09-29T09:08:30.776Z,21.99
2018-09-29T09:09:30.909Z,21.93
2018-09-29T09:10:30.728Z,21.93
2018-09-29T09:11:30.731Z,21.93
2018-09-29T09:12:30.708Z,21.90
2018-09-29T09:13:30.726Z,21.94
2018-09-29T09:14:30.696Z,22.02
2018-09-29T09:15:30.673Z,21.97
2018-09-29T09:16:30.663Z,22.00
2018-09-29T09:17:30.649Z,21.97
2018-09-29T09:18:30.640Z,22.04
2018-09-29T09:19:30.641Z,22.08
2018-09-29T09:20:30.618Z,22.04
2018-09-29T09:21:30.611Z,22.00
2018-09-29T09:22:30.594Z,22.04
2018-09-29T09:23:30.626Z,22.00
2018-09-29T09:24:30.584Z,22.05
2018-09-29T09:25:30.562Z,22.02
2018-09-29T09:26:30.560Z,22.00
2018-09-29T09:27:30.539Z,22.05
2018-09-29T09:28:30.530Z,22.02
2018-09-29T09:29:30.528Z,21.97
2018-09-29T09:30:30.507Z,22.02
2018-09-29T09:31:30.498Z,21.96
2018-09-29T09:32:30.486Z,22.04
2018-09-29T09:33:30.474Z,22.09
2018-09-29T09:34:30.497Z,22.04
2018-09-29T09:35:30.453Z,22.04
2018-09-29T09:36:30.440Z,21.97
2018-09-29T09:37:30.432Z,21.96
2018-09-29T09:38:30.420Z,21.99
2018-09-29T09:39:30.439Z,22.12
2018-09-29T09:40:30.396Z,22.00
2018-09-29T09:41:30.388Z,21.99
2018-09-29T09:42:30.376Z,22.00
2018-09-29T09:43:30.473Z,22.04
2018-09-29T09:44:30.376Z,22.08
2018-09-29T09:45:30.352Z,22.07
2018-09-29T09:46:30.368Z,22.00
2018-09-29T09:47:30.320Z,22.04
2018-09-29T09:48:30.308Z,22.00
2018-09-29T09:49:30.406Z,22.09
2018-09-29T09:50:30.300Z,22.12
2018-09-29T09:51:30.284Z,22.05
2018-09-29T09:52:30.264Z,22.08
2018-09-29T09:53:30.304Z,22.05
2018-09-29T09:54:30.244Z,22.08
2018-09-29T09:55:30.245Z,22.05
2018-09-29T09:56:30.233Z,22.02
2018-09-29T09:57:30.212Z,22.07
2018-09-29T09:58:30.198Z,22.08
2018-09-29T09:59:30.186Z,22.16
2018-09-29T10:00:30.187Z,22.04
2018-09-29T10:01:30.174Z,22.11
2018-09-29T10:02:30.163Z,22.00
2018-09-29T10:03:30.146Z,22.04
2018-09-29T10:04:30.137Z,22.02
2018-09-29T10:05:30.138Z,22.04
2018-09-29T10:06:30.153Z,22.09
2018-09-29T10:07:30.102Z,22.05
2018-09-29T10:08:30.092Z,22.04
2018-09-29T10:09:30.078Z,22.09
2018-09-29T10:10:30.094Z,22.05
2018-09-29T10:11:30.057Z,22.05
2018-09-29T10:12:30.045Z,22.09
2018-09-29T10:13:30.052Z,22.02
2018-09-29T10:14:30.041Z,22.09
2018-09-29T10:15:30.032Z,22.15
2018-09-29T10:16:30.000Z,22.12
2018-09-29T10:17:30.105Z,22.07
2018-09-29T10:18:30.002Z,22.05
2018-09-29T10:19:29.969Z,22.07
2018-09-29T10:20:29.968Z,22.14
2018-09-29T10:21:29.956Z,22.11
2018-09-29T10:22:29.944Z,22.08
2018-09-29T10:23:29.924Z,22.04
2018-09-29T10:24:29.912Z,22.04
2018-09-29T10:25:29.923Z,22.09
2018-09-29T10:26:29.891Z,22.00
2018-09-29T10:27:29.926Z,21.99
2018-09-29T10:28:29.889Z,22.02
2018-09-29T10:29:29.862Z,21.90
2018-09-29T10:30:29.861Z,21.94
2018-09-29T10:31:29.857Z,21.93
2018-09-29T10:32:29.824Z,21.96
2018-09-29T10:33:29.832Z,21.94
2018-09-29T10:34:29.850Z,21.97
2018-09-29T10:35:29.837Z,21.93
2018-09-29T10:36:29.886Z,21.82
2018-09-29T10:37:29.776Z,21.93
2018-09-29T10:38:29.788Z,21.89
2018-09-29T10:39:29.747Z,21.85
2018-09-29T10:40:29.749Z,21.92
2018-09-29T10:41:29.742Z,21.90
2018-09-29T10:42:29.714Z,21.89
2018-09-29T10:43:29.703Z,21.92
2018-09-29T10:44:29.692Z,21.85
2018-09-29T10:45:29.701Z,21.80
2018-09-29T10:46:29.674Z,21.83
2018-09-29T10:47:29.659Z,21.80
2018-09-29T10:48:29.649Z,21.77
2018-09-29T10:49:29.637Z,21.64
2018-09-29T10:50:29.638Z,21.67
2018-09-29T10:51:29.615Z,21.67
2018-09-29T10:52:29.604Z,21.70
2018-09-29T10:53:29.594Z,21.56
2018-09-29T10:54:29.595Z,21.70
2018-09-29T10:55:29.583Z,21.59
2018-09-29T10:56:29.567Z,21.56
2018-09-29T10:57:29.549Z,21.59
2018-09-29T10:58:29.537Z,21.56
2018-09-29T10:59:29.526Z,21.61
2018-09-29T11:00:29.527Z,21.59
2018-09-29T11:01:29.505Z,21.68
2018-09-29T11:02:29.561Z,21.71
2018-09-29T11:03:29.483Z,21.68
2018-09-29T11:04:29.485Z,21.62
2018-09-29T11:05:29.474Z,21.68
2018-09-29T11:06:29.449Z,21.67
2018-09-29T11:07:29.467Z,21.73
2018-09-29T11:08:29.427Z,21.74
2018-09-29T11:09:29.435Z,21.78
2018-09-29T11:10:29.439Z,21.77
2018-09-29T11:11:29.398Z,21.71
2018-09-29T11:12:29.384Z,21.74
2018-09-29T11:13:29.372Z,21.77
2018-09-29T11:14:29.396Z,21.74
2018-09-29T11:15:29.351Z,21.82
2018-09-29T11:16:29.350Z,21.82
2018-09-29T11:17:29.339Z,21.73
2018-09-29T11:18:29.317Z,21.80
2018-09-29T11:19:29.306Z,21.77
2018-09-29T11:20:29.295Z,21.86
2018-09-29T11:21:29.301Z,21.89
2018-09-29T11:22:29.275Z,21.93
2018-09-29T11:23:29.263Z,21.94
2018-09-29T11:24:29.258Z,21.90
2018-09-29T11:25:29.257Z,21.96
2018-09-29T11:26:29.242Z,21.83
2018-09-29T11:27:29.238Z,21.97
2018-09-29T11:28:29.208Z,21.83
2018-09-29T11:29:29.198Z,21.92
2018-09-29T11:30:29.185Z,21.92
2018-09-29T11:31:29.187Z,21.86
2018-09-29T11:32:29.167Z,21.90
2018-09-29T11:33:29.152Z,21.90
2018-09-29T11:34:29.149Z,21.89
2018-09-29T11:35:29.132Z,21.93
2018-09-29T11:36:29.147Z,21.92
2018-09-29T11:37:29.137Z,22.05
2018-09-29T11:38:29.103Z,21.93
2018-09-29T11:39:29.159Z,21.94
2018-09-29T11:40:29.140Z,21.96
2018-09-29T11:41:29.089Z,22.00
2018-09-29T11:42:29.065Z,21.99
2018-09-29T11:43:29.042Z,21.97
2018-09-29T11:44:29.032Z,22.05
2018-09-29T11:45:29.057Z,22.09
2018-09-29T11:46:29.031Z,22.04
2018-09-29T11:47:28.998Z,22.04
2018-09-29T11:48:29.019Z,22.08
2018-09-29T11:49:28.976Z,22.05
2018-09-29T11:50:28.983Z,22.08
2018-09-29T11:51:28.968Z,22.07
2018-09-29T11:52:28.945Z,22.09
2018-09-29T11:53:28.932Z,22.09
2018-09-29T11:54:28.920Z,22.09
2018-09-29T11:55:28.930Z,22.08
2018-09-29T11:56:28.911Z,22.15
2018-09-29T11:57:28.890Z,22.15
2018-09-29T11:58:28.877Z,22.16
2018-09-29T11:59:28.865Z,22.09
2018-09-29T12:00:28.854Z,22.16
2018-09-29T12:01:28.856Z,22.14
2018-09-29T12:02:28.833Z,22.20
2018-09-29T12:03:28.824Z,22.15
2018-09-29T12:04:28.812Z,22.16
2018-09-29T12:05:28.798Z,22.12
2018-09-29T12:06:28.801Z,22.22
2018-09-29T12:07:28.813Z,22.24
2018-09-29T12:08:28.772Z,22.18
2018-09-29T12:09:28.778Z,22.24
2018-09-29T12:10:28.744Z,22.24
2018-09-29T12:11:28.746Z,22.20
2018-09-29T12:12:28.723Z,22.15
2018-09-29T12:13:28.719Z,22.23
2018-09-29T12:14:28.706Z,22.30
2018-09-29T12:15:28.692Z,22.18
2018-09-29T12:16:28.690Z,22.26
2018-09-29T12:17:28.668Z,22.30
2018-09-29T12:18:28.657Z,22.20
2018-09-29T12:19:28.646Z,22.31
2018-09-29T12:20:28.636Z,22.33
2018-09-29T12:21:28.657Z,22.29
2018-09-29T12:22:28.663Z,22.29
2018-09-29T12:23:28.628Z,22.26
2018-09-29T12:24:28.590Z,22.22
2018-09-29T12:25:28.608Z,22.33
2018-09-29T12:26:28.582Z,22.36
2018-09-29T12:27:28.564Z,22.27
2018-09-29T12:28:28.546Z,22.31
2018-09-29T12:29:28.595Z,22.26
2018-09-29T12:30:28.533Z,22.30
2018-09-29T12:31:28.536Z,22.24
2018-09-29T12:32:28.503Z,22.31
2018-09-29T12:33:28.491Z,22.24
2018-09-29T12:34:28.481Z,22.36
2018-09-29T12:35:28.470Z,22.38
2018-09-29T12:36:28.491Z,22.30
2018-09-29T12:37:28.502Z,22.29
2018-09-29T12:38:28.437Z,22.30
2018-09-29T12:39:28.431Z,22.38
2018-09-29T12:40:28.415Z,22.33
2018-09-29T12:41:28.434Z,22.41
2018-09-29T12:42:28.394Z,22.34
2018-09-29T12:43:28.381Z,22.38
2018-09-29T12:44:28.459Z,22.31
2018-09-29T12:45:28.359Z,22.30
2018-09-29T12:46:28.367Z,22.41
2018-09-29T12:47:28.355Z,22.36
2018-09-29T12:48:28.326Z,22.36
2018-09-29T12:49:28.315Z,22.38
2018-09-29T12:50:28.305Z,22.38
2018-09-29T12:51:28.309Z,22.39
2018-09-29T12:52:28.296Z,22.30